createdAt,value
2022-11-07T00:03:22.944Z,96763.00
2022-11-07T00:08:34.548Z,96768.00
2022-11-07T00:13:35.344Z,96773.00
2022-11-07T00:18:36.693Z,96775.00
2022-11-07T00:23:41.369Z,96776.00
2022-11-07T00:28:43.681Z,96779.00
2022-11-07T00:33:45.242Z,96781.00
2022-11-07T00:38:46.207Z,96788.00
2022-11-07T00:43:47.253Z,96795.00
2022-11-07T00:48:50.681Z,96798.00
2022-11-07T00:53:51.955Z,96806.00
2022-11-07T00:58:57.742Z,96795.00
2022-11-07T01:04:17.578Z,96784.00
2022-11-07T01:09:20.559Z,96801.00
2022-11-07T01:14:22.147Z,96797.00
2022-11-07T01:19:22.973Z,96804.00
2022-11-07T01:24:24.377Z,96811.00
2022-11-07T01:29:25.186Z,96814.00
2022-11-07T01:34:26.036Z,96811.00
2022-11-07T01:39:29.534Z,96806.00
2022-11-07T01:45:04.288Z,96806.00
2022-11-07T01:50:06.730Z,96788.00
2022-11-07T01:55:16.966Z,96795.00
2022-11-07T02:00:20.409Z,96797.00
2022-11-07T02:05:36.028Z,96793.00
2022-11-07T02:10:38.925Z,96794.00
2022-11-07T02:15:39.750Z,96793.00
2022-11-07T02:20:40.666Z,96791.00
2022-11-07T02:25:41.498Z,96786.00
2022-11-07T02:30:42.250Z,96788.00
2022-11-07T02:35:45.208Z,96774.00
2022-11-07T02:40:51.096Z,96791.00
2022-11-07T02:45:56.845Z,96787.00
2022-11-07T02:50:58.457Z,96785.00
2022-11-07T02:55:59.724Z,96778.00
2022-11-07T03:01:02.209Z,96783.00
2022-11-07T03:06:03.444Z,96782.00
2022-11-07T03:11:12.444Z,96786.00
2022-11-07T03:16:13.952Z,96781.00
2022-11-07T03:21:14.670Z,96778.00
2022-11-07T03:26:15.410Z,96780.00
2022-11-07T03:31:18.955Z,96784.00
2022-11-07T03:36:19.805Z,96788.00
2022-11-07T03:41:21.263Z,96782.00
2022-11-07T03:46:22.067Z,96789.00
2022-11-07T03:51:22.824Z,96793.00
2022-11-07T03:56:23.588Z,96787.00
2022-11-07T04:01:27.557Z,96789.00
2022-11-07T04:06:29.104Z,96793.00
2022-11-07T04:11:48.112Z,96798.00
2022-11-07T04:17:10.937Z,96794.00
2022-11-07T04:22:11.852Z,96801.00
2022-11-07T04:27:32.476Z,96794.00
2022-11-07T04:32:33.262Z,96794.00
2022-11-07T04:37:34.133Z,96797.00
2022-11-07T04:42:34.851Z,96806.00
2022-11-07T04:47:40.159Z,96811.00
2022-11-07T04:52:41.358Z,96813.00
2022-11-07T04:57:42.099Z,96813.00
2022-11-07T05:02:46.616Z,96829.00
2022-11-07T05:07:48.694Z,96824.00
2022-11-07T05:12:50.004Z,96812.00
2022-11-07T05:17:51.019Z,96823.00
2022-11-07T05:23:10.397Z,96821.00
2022-11-07T05:28:13.608Z,96817.00
2022-11-07T05:33:15.387Z,96806.00
2022-11-07T05:38:16.698Z,96826.00
2022-11-07T05:43:17.873Z,96820.00
2022-11-07T05:48:19.493Z,96826.00
2022-11-07T05:53:20.553Z,96829.00
2022-11-07T05:58:22.007Z,96824.00
2022-11-07T06:03:22.874Z,96826.00
2022-11-07T06:08:23.883Z,96833.00
2022-11-07T06:13:27.643Z,96829.00
2022-11-07T06:18:28.446Z,96846.00
2022-11-07T06:23:31.247Z,96848.00
2022-11-07T06:28:32.041Z,96850.00
2022-11-07T06:33:37.861Z,96858.00
2022-11-07T06:38:39.736Z,96854.00
2022-11-07T06:43:40.849Z,96861.00
2022-11-07T06:48:41.861Z,96864.00
2022-11-07T06:53:45.662Z,96867.00
2022-11-07T06:58:46.388Z,96867.00
2022-11-07T07:03:47.163Z,96869.00
2022-11-07T07:08:47.971Z,96874.00
2022-11-07T07:13:48.921Z,96883.00
2022-11-07T07:18:49.637Z,96893.00
2022-11-07T07:23:53.745Z,96899.00
2022-11-07T07:28:54.705Z,96903.00
2022-11-07T07:33:56.147Z,96914.00
2022-11-07T07:38:57.019Z,96916.00
2022-11-07T07:43:57.767Z,96902.00
2022-11-07T07:48:58.484Z,96901.00
2022-11-07T07:54:00.228Z,96917.00
2022-11-07T07:59:02.325Z,96912.00
2022-11-07T08:04:03.383Z,96918.00
2022-11-07T08:09:05.288Z,96930.00
2022-11-07T08:14:06.034Z,96925.00
2022-11-07T08:19:07.216Z,96929.00
2022-11-07T08:24:08.039Z,96935.00
2022-11-07T08:29:11.961Z,96937.00
2022-11-07T08:34:12.875Z,96934.00
2022-11-07T08:39:17.770Z,96944.00
2022-11-07T08:44:18.529Z,96948.00
2022-11-07T08:49:23.332Z,96948.00
2022-11-07T08:54:28.025Z,96954.00
2022-11-07T08:59:28.779Z,96941.00
2022-11-07T09:04:29.553Z,96938.00
2022-11-07T09:09:30.411Z,96946.00
2022-11-07T09:14:31.175Z,96942.00
2022-11-07T09:19:32.040Z,96932.00
2022-11-07T09:24:32.795Z,96933.00
2022-11-07T09:29:33.797Z,96926.00
2022-11-07T09:34:36.948Z,96932.00
2022-11-07T09:39:38.106Z,96932.00
2022-11-07T09:44:52.941Z,96940.00
2022-11-07T09:50:07.091Z,96948.00
2022-11-07T09:55:22.544Z,96957.00
2022-11-07T10:00:23.962Z,96956.00
2022-11-07T10:06:56.801Z,96970.00
2022-11-07T10:14:53.747Z,96977.00
2022-11-07T10:22:50.465Z,96974.00
2022-11-07T10:28:12.599Z,96981.00
2022-11-07T10:34:05.318Z,96984.00
2022-11-07T10:39:15.195Z,96991.00
2022-11-07T10:44:25.913Z,96992.00
2022-11-07T10:49:31.774Z,96994.00
2022-11-07T10:54:34.811Z,97008.00
2022-11-07T10:59:38.618Z,96981.00
2022-11-07T11:04:57.216Z,96994.00
2022-11-07T11:09:58.089Z,96998.00
2022-11-07T11:15:11.732Z,96987.00
2022-11-07T11:20:58.116Z,96986.00
2022-11-07T11:26:01.981Z,96983.00
2022-11-07T11:31:07.359Z,96974.00
2022-11-07T11:36:31.337Z,96968.00
2022-11-07T11:41:40.356Z,96964.00
2022-11-07T11:49:37.042Z,96962.00
2022-11-07T11:54:37.812Z,96952.00
2022-11-07T12:00:56.139Z,96957.00
2022-11-07T12:06:20.370Z,96954.00
2022-11-07T12:11:42.603Z,96959.00
2022-11-07T12:16:57.675Z,96948.00
2022-11-07T12:23:44.333Z,96950.00
2022-11-07T12:29:25.919Z,96951.00
2022-11-07T12:35:00.886Z,96949.00
2022-11-07T12:45:01.283Z,96950.00
2022-11-07T12:50:24.700Z,96947.00
2022-11-07T12:56:13.293Z,96952.00
2022-11-07T13:01:25.484Z,96950.00
2022-11-07T13:06:46.851Z,96953.00
2022-11-07T13:12:04.467Z,96953.00
2022-11-07T13:17:42.838Z,96945.00
2022-11-07T13:22:43.889Z,96950.00
2022-11-07T13:27:58.847Z,96937.00
2022-11-07T13:33:01.306Z,96948.00
2022-11-07T13:38:15.024Z,96952.00
2022-11-07T13:43:21.303Z,96952.00
2022-11-07T13:48:28.522Z,96946.00
2022-11-07T13:53:35.102Z,96950.00
2022-11-07T13:58:42.655Z,96963.00
2022-11-07T14:03:43.508Z,96953.00
2022-11-07T14:08:46.446Z,96969.00
2022-11-07T14:13:51.005Z,96959.00
2022-11-07T14:19:01.669Z,96967.00
2022-11-07T14:24:26.800Z,96968.00
2022-11-07T14:29:28.090Z,96972.00
2022-11-07T14:34:29.549Z,96978.00
2022-11-07T14:39:33.423Z,96977.00
2022-11-07T14:44:53.992Z,96979.00
2022-11-07T14:50:23.507Z,96982.00
2022-11-07T14:55:33.576Z,96978.00
2022-11-07T15:00:35.174Z,96982.00
2022-11-07T15:05:45.334Z,96983.00
2022-11-07T15:10:46.742Z,96981.00
2022-11-07T15:16:00.221Z,96978.00
2022-11-07T15:21:01.849Z,96978.00
2022-11-07T15:26:11.951Z,96979.00
2022-11-07T15:31:30.004Z,96978.00
2022-11-07T15:36:31.259Z,96981.00
2022-11-07T15:41:32.232Z,96979.00
2022-11-07T15:46:40.383Z,96971.00
2022-11-07T15:51:41.492Z,96969.00
2022-11-07T15:56:44.586Z,96981.00
2022-11-07T16:01:46.007Z,96967.00
2022-11-07T16:06:46.940Z,96978.00
2022-11-07T16:11:59.311Z,96979.00
2022-11-07T16:17:01.585Z,96979.00
2022-11-07T16:22:03.598Z,96976.00
2022-11-07T16:27:05.745Z,96980.00
2022-11-07T16:32:13.933Z,96988.00
2022-11-07T16:37:17.417Z,96989.00
2022-11-07T16:42:21.626Z,96990.00
2022-11-07T16:47:23.223Z,96990.00
2022-11-07T16:52:27.464Z,96989.00
2022-11-07T16:57:33.944Z,96982.00
2022-11-07T17:02:38.460Z,96991.00
2022-11-07T17:07:39.603Z,96976.00
2022-11-07T17:12:41.664Z,96983.00
2022-11-07T17:17:44.993Z,96992.00
2022-11-07T17:22:45.734Z,96995.00
2022-11-07T17:27:47.838Z,96990.00
2022-11-07T17:32:48.583Z,96990.00
2022-11-07T17:37:49.579Z,96984.00
2022-11-07T17:42:50.337Z,96990.00
2022-11-07T17:47:52.027Z,96986.00
2022-11-07T17:52:52.876Z,96988.00
2022-11-07T17:57:53.812Z,96999.00
2022-11-07T18:02:54.692Z,96992.00
2022-11-07T18:07:55.676Z,96994.00
2022-11-07T18:13:00.073Z,97000.00
2022-11-07T18:18:02.671Z,96997.00
2022-11-07T18:23:06.363Z,96997.00
2022-11-07T18:28:07.183Z,96993.00
2022-11-07T18:33:07.936Z,96999.00
2022-11-07T18:38:11.243Z,96981.00
2022-11-07T18:43:12.155Z,96988.00
2022-11-07T18:48:14.492Z,96987.00
2022-11-07T18:53:16.778Z,97000.00
2022-11-07T18:58:17.874Z,96992.00
2022-11-07T19:03:19.121Z,96989.00
2022-11-07T19:08:25.120Z,96986.00
2022-11-07T19:13:26.887Z,96974.00
2022-11-07T19:18:29.612Z,96979.00
2022-11-07T19:23:37.335Z,96979.00
2022-11-07T19:28:39.310Z,96971.00
2022-11-07T19:33:41.989Z,96984.00
2022-11-07T19:38:43.585Z,96989.00
2022-11-07T19:43:49.093Z,96985.00
2022-11-07T19:48:49.997Z,96982.00
2022-11-07T19:53:52.973Z,96988.00
2022-11-07T19:58:56.463Z,96979.00
2022-11-07T20:03:59.574Z,96978.00
2022-11-07T20:09:03.299Z,96981.00
2022-11-07T20:14:12.955Z,96988.00
2022-11-07T20:19:13.887Z,96984.00
2022-11-07T20:24:14.709Z,96990.00
2022-11-07T20:29:17.769Z,96991.00
2022-11-07T20:34:20.730Z,96987.00
2022-11-07T20:39:21.545Z,96984.00
2022-11-07T20:44:22.758Z,96978.00
2022-11-07T20:49:24.106Z,96986.00
2022-11-07T20:54:24.825Z,96992.00
2022-11-07T20:59:25.880Z,96994.00
2022-11-07T21:04:36.253Z,96981.00
2022-11-07T21:09:45.226Z,96984.00
2022-11-07T21:14:45.932Z,96987.00
2022-11-07T21:19:47.167Z,96980.00
2022-11-07T21:24:53.740Z,96975.00
2022-11-07T21:29:54.845Z,96978.00
2022-11-07T21:34:57.771Z,96983.00
2022-11-07T21:39:58.494Z,96982.00
2022-11-07T21:44:59.270Z,96981.00
2022-11-07T21:50:00.058Z,96977.00
2022-11-07T21:55:01.533Z,96978.00
2022-11-07T22:00:04.004Z,96983.00
2022-11-07T22:05:06.251Z,96969.00
2022-11-07T22:10:07.857Z,96963.00
2022-11-07T22:15:11.616Z,96964.00
2022-11-07T22:20:15.822Z,96962.00
2022-11-07T22:25:16.575Z,96938.00
2022-11-07T22:30:18.993Z,96935.00
2022-11-07T22:35:20.211Z,96947.00
2022-11-07T22:40:21.006Z,96946.00
2022-11-07T22:45:21.967Z,96938.00
2022-11-07T22:50:22.706Z,96930.00
2022-11-07T22:55:24.128Z,96925.00
2022-11-07T23:00:26.026Z,96930.00
2022-11-07T23:05:29.817Z,96921.00
2022-11-07T23:10:30.735Z,96916.00
2022-11-07T23:15:31.730Z,96915.00
2022-11-07T23:21:00.972Z,96912.00
2022-11-07T23:26:06.051Z,96912.00
2022-11-07T23:31:07.875Z,96903.00
2022-11-07T23:36:12.330Z,96907.00
2022-11-07T23:41:19.985Z,96902.00
2022-11-07T23:46:52.354Z,96901.00
2022-11-07T23:51:53.162Z,96893.00
2022-11-07T23:56:53.886Z,96896.00
